createdAt,value
2023-02-22T00:00:04.131Z,2.87
2023-02-22T00:01:04.128Z,2.85
2023-02-22T00:02:04.117Z,2.87
2023-02-22T00:03:04.157Z,2.87
2023-02-22T00:04:04.078Z,2.84
2023-02-22T00:05:04.087Z,2.82
2023-02-22T00:06:04.068Z,2.81
2023-02-22T00:07:04.068Z,2.81
2023-02-22T00:08:04.046Z,2.77
2023-02-22T00:09:04.041Z,2.75
2023-02-22T00:10:04.009Z,2.72
2023-02-22T00:11:04.013Z,2.69
2023-02-22T00:12:03.986Z,2.67
2023-02-22T00:13:03.986Z,2.67
2023-02-22T00:14:03.983Z,2.64
2023-02-22T00:15:03.982Z,2.63
2023-02-22T00:16:04.004Z,2.60
2023-02-22T00:17:03.945Z,2.60
2023-02-22T00:18:03.919Z,2.59
2023-02-22T00:19:03.961Z,2.57
2023-02-22T00:20:03.921Z,2.56
2023-02-22T00:21:03.924Z,2.57
2023-02-22T00:22:03.884Z,2.56
2023-02-22T00:23:03.931Z,2.48
2023-02-22T00:24:03.864Z,2.49
2023-02-22T00:25:03.879Z,2.49
2023-02-22T00:26:03.840Z,2.49
2023-02-22T00:27:03.862Z,2.45
2023-02-22T00:28:03.821Z,2.43
2023-02-22T00:29:03.833Z,2.41
2023-02-22T00:30:03.789Z,2.42
2023-02-22T00:31:03.794Z,2.45
2023-02-22T00:32:03.933Z,2.46
2023-02-22T00:33:03.784Z,2.46
2023-02-22T00:34:03.774Z,2.45
2023-02-22T00:35:03.780Z,2.41
2023-02-22T00:36:03.729Z,2.39
2023-02-22T00:37:03.731Z,2.38
2023-02-22T00:38:03.711Z,2.35
2023-02-22T00:39:03.727Z,2.34
2023-02-22T00:40:03.692Z,2.31
2023-02-22T00:41:03.681Z,2.25
2023-02-22T00:42:03.679Z,2.24
2023-02-22T00:43:03.665Z,2.25
2023-02-22T00:44:03.640Z,2.25
2023-02-22T00:45:03.673Z,2.27
2023-02-22T00:46:03.711Z,2.28
2023-02-22T00:47:03.618Z,2.28
2023-02-22T00:48:03.604Z,2.27
2023-02-22T00:49:03.626Z,2.27
2023-02-22T00:50:03.585Z,2.27
2023-02-22T00:51:03.604Z,2.25
2023-02-22T00:52:03.561Z,2.24
2023-02-22T00:53:03.567Z,2.24
2023-02-22T00:54:03.536Z,2.23
2023-02-22T00:55:03.571Z,2.25
2023-02-22T00:56:03.507Z,2.24
2023-02-22T00:57:03.527Z,2.23
2023-02-22T00:58:03.498Z,2.21
2023-02-22T00:59:03.497Z,2.18
2023-02-22T01:00:03.463Z,2.12
2023-02-22T01:01:03.516Z,2.10
2023-02-22T01:02:03.533Z,2.06
2023-02-22T01:03:03.458Z,2.03
2023-02-22T01:04:03.419Z,2.00
2023-02-22T01:05:03.440Z,1.99
2023-02-22T01:06:03.397Z,1.98
2023-02-22T01:07:03.420Z,2.02
2023-02-22T01:08:03.382Z,2.00
2023-02-22T01:09:03.398Z,1.99
2023-02-22T01:10:03.355Z,2.02
2023-02-22T01:11:03.373Z,2.02
2023-02-22T01:12:03.336Z,2.02
2023-02-22T01:13:03.347Z,1.99
2023-02-22T01:14:03.312Z,2.02
2023-02-22T01:15:03.366Z,2.00
2023-02-22T01:16:03.317Z,2.00
2023-02-22T01:17:03.320Z,1.98
2023-02-22T01:18:03.266Z,1.98
2023-02-22T01:19:03.282Z,1.93
2023-02-22T01:20:03.251Z,1.95
2023-02-22T01:21:03.263Z,1.93
2023-02-22T01:22:03.226Z,1.95
2023-02-22T01:23:03.241Z,1.95
2023-02-22T01:24:03.206Z,1.98
2023-02-22T01:25:03.243Z,1.98
2023-02-22T01:26:03.180Z,1.99
2023-02-22T01:27:03.216Z,1.95
2023-02-22T01:28:03.179Z,1.91
2023-02-22T01:29:03.180Z,1.87
2023-02-22T01:30:03.146Z,1.83
2023-02-22T01:31:03.334Z,1.83
2023-02-22T01:32:03.139Z,1.80
2023-02-22T01:33:03.145Z,1.80
2023-02-22T01:34:03.108Z,1.77
2023-02-22T01:35:03.095Z,1.72
2023-02-22T01:36:03.073Z,1.70
2023-02-22T01:37:03.083Z,1.66
2023-02-22T01:38:03.065Z,1.65
2023-02-22T01:39:03.068Z,1.62
2023-02-22T01:40:03.029Z,1.63
2023-02-22T01:41:03.031Z,1.62
2023-02-22T01:42:03.009Z,1.63
2023-02-22T01:43:03.063Z,1.63
2023-02-22T01:44:02.995Z,1.65
2023-02-22T01:45:03.003Z,1.65
2023-02-22T01:46:03.030Z,1.63
2023-02-22T01:47:02.988Z,1.65
2023-02-22T01:48:02.954Z,1.66
2023-02-22T01:49:02.959Z,1.66
2023-02-22T01:50:02.932Z,1.66
2023-02-22T01:51:02.920Z,1.66
2023-02-22T01:52:02.913Z,1.66
2023-02-22T01:53:02.920Z,1.66
2023-02-22T01:54:02.900Z,1.63
2023-02-22T01:55:02.896Z,1.60
2023-02-22T01:56:02.873Z,1.60
2023-02-22T01:57:02.854Z,1.60
2023-02-22T01:58:02.834Z,1.59
2023-02-22T01:59:02.846Z,1.58
2023-02-22T02:00:02.808Z,1.54
2023-02-22T02:01:02.812Z,1.58
2023-02-22T02:02:02.785Z,1.55
2023-02-22T02:03:02.813Z,1.58
2023-02-22T02:04:02.828Z,1.55
2023-02-22T02:05:02.916Z,1.54
2023-02-22T02:06:02.768Z,1.54
2023-02-22T02:07:05.666Z,1.55
2023-02-22T02:08:02.728Z,1.52
2023-02-22T02:09:02.734Z,1.51
2023-02-22T02:10:02.718Z,1.48
2023-02-22T02:11:02.725Z,1.50
2023-02-22T02:12:02.728Z,1.47
2023-02-22T02:13:02.710Z,1.47
2023-02-22T02:14:02.656Z,1.44
2023-02-22T02:15:02.685Z,1.45
2023-02-22T02:16:02.652Z,1.45
2023-02-22T02:17:02.682Z,1.44
2023-02-22T02:18:02.615Z,1.45
2023-02-22T02:19:02.639Z,1.45
2023-02-22T02:20:02.610Z,1.41
2023-02-22T02:21:02.624Z,1.40
2023-02-22T02:22:02.580Z,1.37
2023-02-22T02:23:02.599Z,1.36
2023-02-22T02:24:02.569Z,1.34
2023-02-22T02:25:02.566Z,1.32
2023-02-22T02:26:02.545Z,1.33
2023-02-22T02:27:02.571Z,1.30
2023-02-22T02:28:02.512Z,1.29
2023-02-22T02:29:02.522Z,1.29
2023-02-22T02:30:02.489Z,1.30
2023-02-22T02:31:02.513Z,1.26
2023-02-22T02:32:02.560Z,1.24
2023-02-22T02:33:02.489Z,1.22
2023-02-22T02:34:02.467Z,1.23
2023-02-22T02:35:02.482Z,1.23
2023-02-22T02:36:02.428Z,1.20
2023-02-22T02:37:02.465Z,1.16
2023-02-22T02:38:02.416Z,1.15
2023-02-22T02:39:02.414Z,1.16
2023-02-22T02:40:02.420Z,1.12
2023-02-22T02:41:02.411Z,1.09
2023-02-22T02:42:02.366Z,1.09
2023-02-22T02:43:02.378Z,1.09
2023-02-22T02:44:02.340Z,1.08
2023-02-22T02:45:02.361Z,1.09
2023-02-22T02:46:02.331Z,1.05
2023-02-22T02:47:02.377Z,1.04
2023-02-22T02:48:02.323Z,1.05
2023-02-22T02:49:02.321Z,1.04
2023-02-22T02:50:02.287Z,1.05
2023-02-22T02:51:02.287Z,1.05
2023-02-22T02:52:02.260Z,1.05
2023-02-22T02:53:02.285Z,1.05
2023-02-22T02:54:02.250Z,1.00
2023-02-22T02:55:02.226Z,1.00
2023-02-22T02:56:02.225Z,1.02
2023-02-22T02:57:02.232Z,1.04
2023-02-22T02:58:02.204Z,1.00
2023-02-22T02:59:02.210Z,1.02
2023-02-22T03:00:02.171Z,0.97
2023-02-22T03:01:02.193Z,0.96
2023-02-22T03:02:02.153Z,0.94
2023-02-22T03:03:02.161Z,0.93
2023-02-22T03:04:02.148Z,0.93
2023-02-22T03:05:02.139Z,0.93
2023-02-22T03:06:02.108Z,0.93
2023-02-22T03:07:02.158Z,0.94
2023-02-22T03:08:02.089Z,0.94
2023-02-22T03:09:02.122Z,0.94
2023-02-22T03:10:02.074Z,0.91
2023-02-22T03:11:02.073Z,0.91
2023-02-22T03:12:02.051Z,0.93
2023-02-22T03:13:02.049Z,0.91
2023-02-22T03:14:02.046Z,0.91
2023-02-22T03:15:02.051Z,0.91
2023-02-22T03:16:02.058Z,0.91
2023-02-22T03:17:02.030Z,0.90
2023-02-22T03:18:01.982Z,0.86
2023-02-22T03:19:02.022Z,0.84
2023-02-22T03:20:02.000Z,0.83
2023-02-22T03:21:02.012Z,0.83
2023-02-22T03:22:01.942Z,0.80
2023-02-22T03:23:01.973Z,0.80
2023-02-22T03:24:01.919Z,0.79
2023-02-22T03:25:01.950Z,0.78
2023-02-22T03:26:01.943Z,0.76
2023-02-22T03:27:01.924Z,0.76
2023-02-22T03:28:01.899Z,0.75
2023-02-22T03:29:01.888Z,0.73
2023-02-22T03:30:01.859Z,0.70
2023-02-22T03:31:01.912Z,0.66
2023-02-22T03:32:01.965Z,0.61
2023-02-22T03:33:01.862Z,0.65
2023-02-22T03:34:01.834Z,0.62
2023-02-22T03:35:01.825Z,0.62
2023-02-22T03:36:01.812Z,0.65
2023-02-22T03:37:01.806Z,0.65
2023-02-22T03:38:01.780Z,0.66
2023-02-22T03:39:01.781Z,0.65
2023-02-22T03:40:01.757Z,0.62
2023-02-22T03:41:01.765Z,0.60
2023-02-22T03:42:01.746Z,0.58
2023-02-22T03:43:01.753Z,0.58
2023-02-22T03:44:01.718Z,0.55
2023-02-22T03:45:01.747Z,0.53
2023-02-22T03:46:01.750Z,0.49
2023-02-22T03:47:01.704Z,0.50
2023-02-22T03:48:01.706Z,0.51
2023-02-22T03:49:01.692Z,0.53
2023-02-22T03:50:01.652Z,0.53
2023-02-22T03:51:01.657Z,0.55
2023-02-22T03:52:01.638Z,0.55
2023-02-22T03:53:01.655Z,0.58
2023-02-22T03:54:01.620Z,0.60
2023-02-22T03:55:01.614Z,0.58
2023-02-22T03:56:01.619Z,0.57
2023-02-22T03:57:01.654Z,0.53
2023-02-22T03:58:01.594Z,0.50
2023-02-22T03:59:01.589Z,0.50
2023-02-22T04:00:01.549Z,0.46
2023-02-22T04:01:01.553Z,0.46
2023-02-22T04:02:01.534Z,0.49
2023-02-22T04:03:01.639Z,0.49
2023-02-22T04:04:01.510Z,0.50
2023-02-22T04:05:01.590Z,0.50
2023-02-22T04:06:01.493Z,0.53
2023-02-22T04:07:01.491Z,0.53
2023-02-22T04:08:01.494Z,0.50
2023-02-22T04:09:01.472Z,0.51
2023-02-22T04:10:01.460Z,0.49
2023-02-22T04:11:01.485Z,0.46
2023-02-22T04:12:01.445Z,0.46
2023-02-22T04:13:01.436Z,0.42
2023-02-22T04:14:01.435Z,0.44
2023-02-22T04:15:01.454Z,0.47
2023-02-22T04:16:01.442Z,0.49
2023-02-22T04:17:01.404Z,0.49
2023-02-22T04:18:01.416Z,0.51
2023-02-22T04:19:01.367Z,0.51
2023-02-22T04:20:01.422Z,0.49
2023-02-22T04:21:01.343Z,0.50
2023-02-22T04:22:01.356Z,0.47
2023-02-22T04:23:01.318Z,0.47
2023-02-22T04:24:01.343Z,0.47
2023-02-22T04:25:01.313Z,0.47
2023-02-22T04:26:01.339Z,0.46
2023-02-22T04:27:01.280Z,0.46
2023-02-22T04:28:01.305Z,0.46
2023-02-22T04:29:01.312Z,0.44
2023-02-22T04:30:01.271Z,0.44
2023-02-22T04:31:01.289Z,0.44
2023-02-22T04:32:01.262Z,0.39
2023-02-22T04:33:01.246Z,0.42
2023-02-22T04:34:01.229Z,0.42
2023-02-22T04:35:01.216Z,0.38
2023-02-22T04:36:01.199Z,0.38
2023-02-22T04:37:01.183Z,0.39
2023-02-22T04:38:01.208Z,0.41
2023-02-22T04:39:01.172Z,0.41
2023-02-22T04:40:01.173Z,0.42
2023-02-22T04:41:01.164Z,0.39
2023-02-22T04:42:01.160Z,0.36
2023-02-22T04:43:01.113Z,0.36
2023-02-22T04:44:01.131Z,0.35
2023-02-22T04:45:01.112Z,0.31
2023-02-22T04:46:01.123Z,0.32
2023-02-22T04:47:01.090Z,0.31
2023-02-22T04:48:01.079Z,0.31
2023-02-22T04:49:01.070Z,0.29
2023-02-22T04:50:01.071Z,0.29
2023-02-22T04:51:01.051Z,0.31
2023-02-22T04:52:01.060Z,0.29
2023-02-22T04:53:01.025Z,0.35
2023-02-22T04:54:01.047Z,0.35
2023-02-22T04:55:00.995Z,0.32
2023-02-22T04:56:01.014Z,0.35
2023-02-22T04:57:00.972Z,0.33
2023-02-22T04:58:00.993Z,0.35
2023-02-22T04:59:01.104Z,0.35
2023-02-22T05:00:00.972Z,0.35
2023-02-22T05:01:00.945Z,0.36
2023-02-22T05:02:01.018Z,0.41
2023-02-22T05:03:00.916Z,0.39
2023-02-22T05:04:00.921Z,0.39
2023-02-22T05:05:00.975Z,0.38
2023-02-22T05:06:00.919Z,0.35
2023-02-22T05:07:00.895Z,0.35
2023-02-22T05:08:00.891Z,0.35
2023-02-22T05:09:00.880Z,0.35
2023-02-22T05:10:00.878Z,0.36
2023-02-22T05:11:00.834Z,0.38
2023-02-22T05:12:00.850Z,0.39
2023-02-22T05:13:01.931Z,0.39
2023-02-22T05:14:00.816Z,0.41
2023-02-22T05:15:00.789Z,0.42
2023-02-22T05:16:00.862Z,0.41
2023-02-22T05:17:00.769Z,0.42
2023-02-22T05:18:00.809Z,0.41
2023-02-22T05:19:00.755Z,0.41
2023-02-22T05:20:00.850Z,0.39
2023-02-22T05:21:00.749Z,0.39
2023-02-22T05:22:00.811Z,0.41
2023-02-22T05:23:00.724Z,0.39
2023-02-22T05:24:00.733Z,0.38
2023-02-22T05:25:00.699Z,0.35
2023-02-22T05:26:00.706Z,0.31
2023-02-22T05:27:00.683Z,0.31
2023-02-22T05:28:00.703Z,0.32
2023-02-22T05:29:00.681Z,0.33
2023-02-22T05:30:00.681Z,0.33
2023-02-22T05:31:00.701Z,0.35
2023-02-22T05:32:00.753Z,0.36
2023-02-22T05:33:00.616Z,0.36
2023-02-22T05:34:00.633Z,0.33
2023-02-22T05:35:00.610Z,0.32
2023-02-22T05:36:00.604Z,0.33
2023-02-22T05:37:00.577Z,0.32
2023-02-22T05:38:00.595Z,0.32
2023-02-22T05:39:00.610Z,0.32
2023-02-22T05:40:00.570Z,0.32
2023-02-22T05:41:00.548Z,0.32
2023-02-22T05:42:00.506Z,0.31
2023-02-22T05:43:00.511Z,0.32
2023-02-22T05:44:00.503Z,0.31
2023-02-22T05:45:00.443Z,0.31
2023-02-22T05:46:00.448Z,0.32
2023-02-22T05:47:00.475Z,0.36
2023-02-22T05:48:00.485Z,0.38
2023-02-22T05:49:00.462Z,0.39
2023-02-22T05:50:00.425Z,0.38
2023-02-22T05:51:00.439Z,0.38
2023-02-22T05:52:00.455Z,0.36
2023-02-22T05:53:00.377Z,0.33
2023-02-22T05:54:00.370Z,0.32
2023-02-22T05:55:00.343Z,0.31
2023-02-22T05:56:00.356Z,0.29
2023-02-22T05:57:00.329Z,0.29
2023-02-22T05:58:00.323Z,0.28
2023-02-22T05:59:00.317Z,0.26
2023-02-22T06:00:00.312Z,0.28
2023-02-22T06:01:02.749Z,0.29
2023-02-22T06:02:00.321Z,0.31
2023-02-22T06:03:00.247Z,0.33
2023-02-22T06:04:00.269Z,0.35
2023-02-22T06:05:00.250Z,0.36
2023-02-22T06:06:00.235Z,0.36
2023-02-22T06:07:00.240Z,0.38
2023-02-22T06:08:00.239Z,0.39
2023-02-22T06:09:00.190Z,0.39
2023-02-22T06:10:00.210Z,0.41
2023-02-22T06:11:00.167Z,0.42
2023-02-22T06:12:00.200Z,0.44
2023-02-22T06:13:00.157Z,0.44
2023-02-22T06:14:00.180Z,0.47
2023-02-22T06:15:00.152Z,0.47
2023-02-22T06:16:00.186Z,0.50
2023-02-22T06:17:00.120Z,0.51
2023-02-22T06:18:00.140Z,0.53
2023-02-22T06:19:00.089Z,0.55
2023-02-22T06:20:00.165Z,0.57
2023-02-22T06:21:00.087Z,0.57
2023-02-22T06:22:00.128Z,0.58
2023-02-22T06:23:00.065Z,0.58
2023-02-22T06:24:00.071Z,0.58
2023-02-22T06:25:00.035Z,0.60
2023-02-22T06:26:00.049Z,0.62
2023-02-22T06:27:00.003Z,0.65
2023-02-22T06:28:00.005Z,0.65
2023-02-22T06:28:59.978Z,0.65
2023-02-22T06:29:59.986Z,0.68
2023-02-22T06:30:59.966Z,0.70
2023-02-22T06:32:00.140Z,0.72
2023-02-22T06:32:59.961Z,0.73
2023-02-22T06:33:59.943Z,0.72
2023-02-22T06:34:59.932Z,0.73
2023-02-22T06:35:59.930Z,0.75
2023-02-22T06:37:00.157Z,0.76
2023-02-22T06:37:59.930Z,0.78
2023-02-22T06:38:59.867Z,0.80
2023-02-22T06:40:04.896Z,0.80
2023-02-22T06:40:59.849Z,0.83
2023-02-22T06:41:59.859Z,0.83
2023-02-22T06:42:59.891Z,0.86
2023-02-22T06:43:59.845Z,0.86
2023-02-22T06:44:59.824Z,0.88
2023-02-22T06:45:59.882Z,0.91
2023-02-22T06:46:59.789Z,0.94
2023-02-22T06:47:59.791Z,0.96
2023-02-22T06:48:59.768Z,0.98
2023-02-22T06:49:59.786Z,1.04
2023-02-22T06:50:59.760Z,1.04
2023-02-22T06:51:59.752Z,1.06
2023-02-22T06:52:59.744Z,1.06
2023-02-22T06:53:59.740Z,1.09
2023-02-22T06:54:59.694Z,1.11
2023-02-22T06:55:59.718Z,1.16
2023-02-22T06:56:59.676Z,1.20
2023-02-22T06:57:59.709Z,1.22
2023-02-22T06:59:02.284Z,1.24
2023-02-22T06:59:59.676Z,1.26
2023-02-22T07:00:59.679Z,1.27
2023-02-22T07:01:59.658Z,1.26
2023-02-22T07:02:59.635Z,1.29
2023-02-22T07:03:59.640Z,1.27
2023-02-22T07:04:59.614Z,1.27
2023-02-22T07:05:59.592Z,1.30
2023-02-22T07:06:59.574Z,1.34
2023-02-22T07:07:59.596Z,1.40
2023-02-22T07:08:59.564Z,1.45
2023-02-22T07:09:59.586Z,1.50
2023-02-22T07:10:59.525Z,1.58
2023-02-22T07:11:59.548Z,1.60
2023-02-22T07:12:59.511Z,1.63
2023-02-22T07:13:59.522Z,1.68
2023-02-22T07:14:59.491Z,1.77
2023-02-22T07:15:59.569Z,1.88
2023-02-22T07:16:59.466Z,2.00
2023-02-22T07:17:59.473Z,2.09
2023-02-22T07:18:59.473Z,2.14
2023-02-22T07:19:59.452Z,2.16
2023-02-22T07:20:59.425Z,2.14
2023-02-22T07:21:59.585Z,2.16
2023-02-22T07:22:59.403Z,2.12
2023-02-22T07:23:59.407Z,2.09
2023-02-22T07:24:59.397Z,2.10
2023-02-22T07:25:59.439Z,2.09
2023-02-22T07:26:59.376Z,2.12
2023-02-22T07:27:59.386Z,2.12
2023-02-22T07:28:59.356Z,2.17
2023-02-22T07:29:59.345Z,2.20
2023-02-22T07:30:59.318Z,2.23
2023-02-22T07:31:59.367Z,2.21
2023-02-22T07:32:59.329Z,2.21
2023-02-22T07:33:59.312Z,2.25
2023-02-22T07:34:59.307Z,2.27
2023-02-22T07:35:59.295Z,2.25
2023-02-22T07:36:59.267Z,2.25
2023-02-22T07:37:59.275Z,2.28
2023-02-22T07:38:59.263Z,2.35
2023-02-22T07:39:59.257Z,2.39
2023-02-22T07:40:59.216Z,2.45
2023-02-22T07:41:59.272Z,2.48
2023-02-22T07:42:59.207Z,2.48
2023-02-22T07:43:59.221Z,2.49
2023-02-22T07:44:59.175Z,2.53
2023-02-22T07:45:59.216Z,2.57
2023-02-22T07:46:59.152Z,2.66
2023-02-22T07:47:59.220Z,2.72
2023-02-22T07:48:59.151Z,2.81
2023-02-22T07:49:59.152Z,2.89
2023-02-22T07:50:59.112Z,2.96
2023-02-22T07:51:59.120Z,3.05
2023-02-22T07:52:59.094Z,3.10
2023-02-22T07:53:59.111Z,3.17
2023-02-22T07:54:59.092Z,3.24
2023-02-22T07:55:59.086Z,3.33
2023-02-22T07:56:59.047Z,3.39
2023-02-22T07:57:59.068Z,3.48
2023-02-22T07:58:59.051Z,3.54
2023-02-22T07:59:59.044Z,3.62
2023-02-22T08:00:59.016Z,3.70
2023-02-22T08:01:59.031Z,3.76
2023-02-22T08:02:58.986Z,3.79
2023-02-22T08:03:59.058Z,3.83
2023-02-22T08:04:58.965Z,3.83
2023-02-22T08:05:58.986Z,3.86
2023-02-22T08:06:59.057Z,3.90
2023-02-22T08:07:58.964Z,3.98
2023-02-22T08:08:58.936Z,4.11
2023-02-22T08:09:58.952Z,4.22
2023-02-22T08:10:58.901Z,4.26
2023-02-22T08:11:58.921Z,4.30
2023-02-22T08:12:58.885Z,4.32
2023-02-22T08:13:58.911Z,4.41
2023-02-22T08:14:58.875Z,4.51
2023-02-22T08:15:58.866Z,4.65
2023-02-22T08:16:58.882Z,4.80
2023-02-22T08:17:58.859Z,4.94
2023-02-22T08:18:58.817Z,5.07
2023-02-22T08:19:58.846Z,5.31
2023-02-22T08:20:58.796Z,5.54
2023-02-22T08:21:58.810Z,5.71
2023-02-22T08:22:58.780Z,5.89
2023-02-22T08:23:58.792Z,5.96
2023-02-22T08:24:58.752Z,6.03
2023-02-22T08:25:58.763Z,6.11
2023-02-22T08:26:58.732Z,6.19
2023-02-22T08:27:58.781Z,6.31
2023-02-22T08:28:58.710Z,6.43
2023-02-22T08:29:58.755Z,6.54
2023-02-22T08:30:58.695Z,6.59
2023-02-22T08:31:58.884Z,6.76
2023-02-22T08:32:58.870Z,6.84
2023-02-22T08:33:58.663Z,6.99
2023-02-22T08:34:58.676Z,7.03
2023-02-22T08:35:58.637Z,7.07
2023-02-22T08:36:58.672Z,7.06
2023-02-22T08:37:58.617Z,7.02
2023-02-22T08:38:58.633Z,6.94
2023-02-22T08:39:58.587Z,6.95
2023-02-22T08:40:58.613Z,6.94
2023-02-22T08:41:58.583Z,6.94
2023-02-22T08:42:58.620Z,6.98
2023-02-22T08:43:58.551Z,7.07
2023-02-22T08:44:58.565Z,7.24
2023-02-22T08:45:58.576Z,7.31
2023-02-22T08:46:58.544Z,7.28
2023-02-22T08:47:58.521Z,7.39
2023-02-22T08:48:58.521Z,7.45
2023-02-22T08:49:58.479Z,7.46
2023-02-22T08:50:58.491Z,7.57
2023-02-22T08:51:58.464Z,7.77
2023-02-22T08:52:58.491Z,7.92
2023-02-22T08:53:58.468Z,8.02
2023-02-22T08:54:58.448Z,8.07
2023-02-22T08:55:58.415Z,8.18
2023-02-22T08:56:58.430Z,8.26
2023-02-22T08:57:58.430Z,8.30
2023-02-22T08:58:58.410Z,8.38
2023-02-22T08:59:58.377Z,8.48
2023-02-22T09:00:58.389Z,8.48
2023-02-22T09:01:58.353Z,8.43
2023-02-22T09:02:58.375Z,8.59
2023-02-22T09:03:58.359Z,8.98
2023-02-22T09:04:58.347Z,9.32
2023-02-22T09:05:58.331Z,9.58
2023-02-22T09:06:58.330Z,9.93
2023-02-22T09:07:58.280Z,10.14
2023-02-22T09:08:58.306Z,10.22
2023-02-22T09:09:58.288Z,10.20
2023-02-22T09:10:58.281Z,10.12
2023-02-22T09:11:58.255Z,10.07
2023-02-22T09:12:58.289Z,10.20
2023-02-22T09:13:58.217Z,10.29
2023-02-22T09:14:58.284Z,10.47
2023-02-22T09:15:58.215Z,10.63
2023-02-22T09:16:58.210Z,10.74
2023-02-22T09:17:58.174Z,10.92
2023-02-22T09:18:58.210Z,11.07
2023-02-22T09:19:58.155Z,11.25
2023-02-22T09:20:58.173Z,11.27
2023-02-22T09:21:58.151Z,11.33
2023-02-22T09:22:58.135Z,11.40
2023-02-22T09:23:58.101Z,11.58
2023-02-22T09:25:00.233Z,11.62
2023-02-22T09:25:58.098Z,11.72
2023-02-22T09:26:58.156Z,11.75
2023-02-22T09:27:58.063Z,11.85
2023-02-22T09:28:58.081Z,12.01
2023-02-22T09:29:58.067Z,12.19
2023-02-22T09:30:58.076Z,12.29
2023-02-22T09:31:58.247Z,12.57
2023-02-22T09:32:58.180Z,13.01
2023-02-22T09:33:58.015Z,13.33
2023-02-22T09:34:58.020Z,13.62
2023-02-22T09:35:57.987Z,13.69
2023-02-22T09:36:58.004Z,13.70
2023-02-22T09:37:58.008Z,13.75
2023-02-22T09:38:57.973Z,13.91
2023-02-22T09:39:58.017Z,14.03
2023-02-22T09:40:57.971Z,14.04
2023-02-22T09:41:57.922Z,13.96
2023-02-22T09:42:57.939Z,13.96
2023-02-22T09:43:57.898Z,14.03
2023-02-22T09:44:57.909Z,14.20
2023-02-22T09:45:57.959Z,14.33
2023-02-22T09:46:57.873Z,14.37
2023-02-22T09:48:01.310Z,14.20
2023-02-22T09:48:57.996Z,14.18
2023-02-22T09:49:57.822Z,14.39
2023-02-22T09:50:57.836Z,14.54
2023-02-22T09:51:57.804Z,14.65
2023-02-22T09:52:57.812Z,14.89
2023-02-22T09:53:57.795Z,15.11
2023-02-22T09:54:57.797Z,14.92
2023-02-22T09:55:57.765Z,14.75
2023-02-22T09:56:57.771Z,14.73
2023-02-22T09:57:57.756Z,15.06
2023-02-22T09:58:57.764Z,15.28
2023-02-22T09:59:57.711Z,15.36
2023-02-22T10:00:57.732Z,15.44
2023-02-22T10:01:57.691Z,15.27
2023-02-22T10:02:57.723Z,15.21
2023-02-22T10:03:57.757Z,15.31
2023-02-22T10:04:57.679Z,15.23
2023-02-22T10:05:57.645Z,15.31
2023-02-22T10:06:57.666Z,15.57
2023-02-22T10:07:57.630Z,15.60
2023-02-22T10:08:57.662Z,15.53
2023-02-22T10:09:57.607Z,15.29
2023-02-22T10:10:57.624Z,14.84
2023-02-22T10:11:57.603Z,14.73
2023-02-22T10:12:57.597Z,14.77
2023-02-22T10:13:57.576Z,14.69
2023-02-22T10:14:57.569Z,14.92
2023-02-22T10:15:57.542Z,15.34
2023-02-22T10:16:57.565Z,15.53
2023-02-22T10:17:57.621Z,15.78
2023-02-22T10:18:57.534Z,16.11
2023-02-22T10:19:57.521Z,16.46
2023-02-22T10:20:57.497Z,16.53
2023-02-22T10:21:57.471Z,16.28
2023-02-22T10:22:57.484Z,16.38
2023-02-22T10:23:57.451Z,16.35
2023-02-22T10:24:57.480Z,16.50
2023-02-22T10:25:57.445Z,16.73
2023-02-22T10:26:57.471Z,16.86
2023-02-22T10:27:57.420Z,17.01
2023-02-22T10:28:57.430Z,16.94
2023-02-22T10:29:57.401Z,16.79
2023-02-22T10:30:57.504Z,16.76
2023-02-22T10:31:57.431Z,16.85
2023-02-22T10:32:57.370Z,16.94
2023-02-22T10:33:57.365Z,16.93
2023-02-22T10:34:57.349Z,16.89
2023-02-22T10:35:57.331Z,17.03
2023-02-22T10:36:57.348Z,17.21
2023-02-22T10:37:57.309Z,17.52
2023-02-22T10:38:57.417Z,17.41
2023-02-22T10:39:57.295Z,17.08
2023-02-22T10:40:57.284Z,16.96
2023-02-22T10:41:57.276Z,16.82
2023-02-22T10:42:57.322Z,16.41
2023-02-22T10:43:57.249Z,16.34
2023-02-22T10:44:57.256Z,16.58
2023-02-22T10:45:57.231Z,16.89
2023-02-22T10:46:57.218Z,16.91
2023-02-22T10:47:57.216Z,16.82
2023-02-22T10:48:57.203Z,16.94
2023-02-22T10:49:57.185Z,17.23
2023-02-22T10:50:57.174Z,17.55
2023-02-22T10:51:57.159Z,17.90
2023-02-22T10:52:57.199Z,17.75
2023-02-22T10:53:57.149Z,17.37
2023-02-22T10:55:13.697Z,17.31
2023-02-22T10:55:57.144Z,17.01
2023-02-22T10:56:57.125Z,16.91
2023-02-22T10:57:57.091Z,16.97
2023-02-22T10:58:57.134Z,17.04
2023-02-22T10:59:57.066Z,17.15
2023-02-22T11:00:57.092Z,17.22
2023-02-22T11:01:57.039Z,17.46
2023-02-22T11:02:57.071Z,17.68
2023-02-22T11:03:57.017Z,17.75
2023-02-22T11:04:57.081Z,17.71
2023-02-22T11:05:56.995Z,17.89
2023-02-22T11:06:56.998Z,18.12
2023-02-22T11:07:56.985Z,18.33
2023-02-22T11:08:57.010Z,18.62
2023-02-22T11:09:56.956Z,18.95
2023-02-22T11:10:56.957Z,19.16
2023-02-22T11:11:59.543Z,19.46
2023-02-22T11:12:56.936Z,19.65
2023-02-22T11:13:56.920Z,19.87
2023-02-22T11:14:56.944Z,19.76
2023-02-22T11:15:56.887Z,19.68
2023-02-22T11:16:57.066Z,19.99
2023-02-22T11:17:56.867Z,20.13
2023-02-22T11:18:56.897Z,20.35
2023-02-22T11:19:56.861Z,20.11
2023-02-22T11:20:56.863Z,20.10
2023-02-22T11:21:56.817Z,20.20
2023-02-22T11:22:56.883Z,20.06
2023-02-22T11:23:56.814Z,20.13
2023-02-22T11:24:58.744Z,20.17
2023-02-22T11:25:56.849Z,20.08
2023-02-22T11:26:56.780Z,19.80
2023-02-22T11:27:56.776Z,19.58
2023-02-22T11:28:56.751Z,19.69
2023-02-22T11:29:56.791Z,19.86
2023-02-22T11:30:56.808Z,19.91
2023-02-22T11:31:56.744Z,20.13
2023-02-22T11:32:56.698Z,20.39
2023-02-22T11:34:01.098Z,20.64
2023-02-22T11:35:08.327Z,20.48
2023-02-22T11:35:56.681Z,20.17
2023-02-22T11:36:56.681Z,19.94
2023-02-22T11:37:56.646Z,19.80
2023-02-22T11:38:56.659Z,19.76
2023-02-22T11:39:56.623Z,19.74
2023-02-22T11:40:56.637Z,19.66
2023-02-22T11:41:56.600Z,19.56
2023-02-22T11:42:56.633Z,19.58
2023-02-22T11:43:56.618Z,19.71
2023-02-22T11:44:56.577Z,19.80
2023-02-22T11:45:58.957Z,19.99
2023-02-22T11:46:56.560Z,20.23
2023-02-22T11:47:56.535Z,20.48
2023-02-22T11:48:56.534Z,20.59
2023-02-22T11:49:56.506Z,20.73
2023-02-22T11:50:56.544Z,20.91
2023-02-22T11:51:56.507Z,20.92
2023-02-22T11:52:56.489Z,20.74
2023-02-22T11:53:56.466Z,20.24
2023-02-22T11:54:56.486Z,19.99
2023-02-22T11:55:56.457Z,19.96
2023-02-22T11:56:56.446Z,19.76
2023-02-22T11:57:56.415Z,19.88
2023-02-22T11:58:56.422Z,20.16
2023-02-22T11:59:56.392Z,20.21
2023-02-22T12:00:56.413Z,20.43
2023-02-22T12:01:56.390Z,20.85
2023-02-22T12:02:57.571Z,21.13
2023-02-22T12:03:56.422Z,21.13
2023-02-22T12:04:56.416Z,21.38
2023-02-22T12:05:56.335Z,21.58
2023-02-22T12:06:56.347Z,21.47
2023-02-22T12:07:56.320Z,21.83
2023-02-22T12:08:56.322Z,21.99
2023-02-22T12:09:56.284Z,21.86
2023-02-22T12:10:56.293Z,21.54
2023-02-22T12:11:56.270Z,21.29
2023-02-22T12:12:56.282Z,21.31
2023-02-22T12:13:56.238Z,21.44
2023-02-22T12:14:56.280Z,21.58
2023-02-22T12:15:56.292Z,21.43
2023-02-22T12:16:56.232Z,21.25
2023-02-22T12:18:00.500Z,20.77
2023-02-22T12:18:56.196Z,20.58
2023-02-22T12:19:56.172Z,20.99
2023-02-22T12:20:56.804Z,21.25
2023-02-22T12:21:56.150Z,21.69
2023-02-22T12:22:56.243Z,21.96
2023-02-22T12:23:56.131Z,22.09
2023-02-22T12:25:08.551Z,22.09
2023-02-22T12:25:56.108Z,21.99
2023-02-22T12:26:56.107Z,21.83
2023-02-22T12:27:56.144Z,21.37
2023-02-22T12:28:56.175Z,21.21
2023-02-22T12:29:56.070Z,21.35
2023-02-22T12:30:56.102Z,21.59
2023-02-22T12:31:56.081Z,21.86
2023-02-22T12:32:56.177Z,21.88
2023-02-22T12:33:56.117Z,22.02
2023-02-22T12:34:56.048Z,22.35
2023-02-22T12:35:56.009Z,22.73
2023-02-22T12:36:56.027Z,23.04
2023-02-22T12:37:55.981Z,23.42
2023-02-22T12:38:56.034Z,23.36
2023-02-22T12:39:55.960Z,23.05
2023-02-22T12:40:55.962Z,22.77
2023-02-22T12:41:55.956Z,22.57
2023-02-22T12:42:55.973Z,22.27
2023-02-22T12:43:55.915Z,22.10
2023-02-22T12:44:55.929Z,22.03
2023-02-22T12:45:55.896Z,21.90
2023-02-22T12:46:55.896Z,21.80
2023-02-22T12:47:55.900Z,21.69
2023-02-22T12:48:55.875Z,21.59
2023-02-22T12:49:55.894Z,21.31
2023-02-22T12:50:55.855Z,20.92
2023-02-22T12:51:55.877Z,20.70
2023-02-22T12:52:55.828Z,20.59
2023-02-22T12:53:55.832Z,20.62
2023-02-22T12:54:55.797Z,20.67
2023-02-22T12:55:56.679Z,20.58
2023-02-22T12:56:55.777Z,20.52
2023-02-22T12:57:55.781Z,20.38
2023-02-22T12:58:55.762Z,20.20
2023-02-22T12:59:55.773Z,20.05
2023-02-22T13:00:55.746Z,20.11
2023-02-22T13:01:55.801Z,20.11
2023-02-22T13:02:55.713Z,20.29
2023-02-22T13:03:55.721Z,20.55
2023-02-22T13:04:55.768Z,20.74
2023-02-22T13:05:55.706Z,20.92
2023-02-22T13:06:55.665Z,20.88
2023-02-22T13:07:55.682Z,20.87
2023-02-22T13:08:55.651Z,20.82
2023-02-22T13:09:55.650Z,20.89